createdAt,value
2023-08-07T00:02:09.192Z,1.52
2023-08-07T00:04:36.309Z,1.13
2023-08-07T00:07:03.662Z,1.20
2023-08-07T00:09:31.810Z,1.20
2023-08-07T00:11:59.003Z,0.90
2023-08-07T00:14:26.096Z,1.20
2023-08-07T00:16:53.164Z,1.20
2023-08-07T00:19:20.249Z,1.17
2023-08-07T00:21:47.317Z,1.27
2023-08-07T00:24:14.534Z,0.90
2023-08-07T00:26:41.683Z,1.38
2023-08-07T00:29:08.850Z,1.48
2023-08-07T00:31:36.055Z,1.10
2023-08-07T00:34:05.089Z,1.55
2023-08-07T00:36:35.809Z,1.30
2023-08-07T00:39:06.750Z,1.50
2023-08-07T00:41:33.968Z,1.63
2023-08-07T00:44:01.780Z,1.50
2023-08-07T00:46:30.566Z,1.13
2023-08-07T00:48:58.202Z,1.10
2023-08-07T00:51:25.421Z,1.02
2023-08-07T00:53:53.083Z,1.35
2023-08-07T00:56:20.525Z,1.23
2023-08-07T00:58:47.822Z,1.33
2023-08-07T01:01:15.807Z,1.27
2023-08-07T01:03:43.209Z,1.00
2023-08-07T01:06:10.330Z,1.33
2023-08-07T01:08:38.032Z,1.33
2023-08-07T01:11:41.321Z,1.25
2023-08-07T01:14:26.471Z,1.27
2023-08-07T01:17:07.657Z,1.10
2023-08-07T01:19:37.284Z,1.00
2023-08-07T01:22:17.994Z,1.03
2023-08-07T01:24:48.295Z,1.17
2023-08-07T01:27:18.187Z,1.35
2023-08-07T01:29:57.225Z,0.82
2023-08-07T01:32:53.326Z,1.20
2023-08-07T01:35:26.628Z,1.57
2023-08-07T01:37:58.190Z,1.00
2023-08-07T01:40:26.878Z,1.23
2023-08-07T01:42:54.791Z,1.13
2023-08-07T01:45:27.059Z,1.10
2023-08-07T01:47:55.057Z,1.33
2023-08-07T01:50:23.571Z,1.15
2023-08-07T01:52:50.987Z,1.63
2023-08-07T01:55:20.980Z,0.88
2023-08-07T01:57:52.947Z,1.10
2023-08-07T02:00:20.768Z,1.50
2023-08-07T02:02:48.400Z,1.30
2023-08-07T02:05:16.726Z,1.10
2023-08-07T02:07:45.218Z,1.48
2023-08-07T02:10:12.535Z,1.52
2023-08-07T02:12:39.817Z,1.10
2023-08-07T02:15:07.940Z,1.17
2023-08-07T02:17:37.081Z,1.17
2023-08-07T02:20:05.010Z,0.85
2023-08-07T02:22:33.312Z,1.00
2023-08-07T02:25:00.544Z,0.97
2023-08-07T02:27:27.617Z,0.85
2023-08-07T02:29:55.278Z,1.08
2023-08-07T02:32:23.968Z,1.10
2023-08-07T02:34:51.205Z,1.13
2023-08-07T02:37:18.508Z,0.60
2023-08-07T02:39:45.731Z,1.17
2023-08-07T02:42:12.928Z,1.00
2023-08-07T02:44:40.077Z,1.10
2023-08-07T02:47:07.752Z,1.00
2023-08-07T02:49:34.824Z,1.10
2023-08-07T02:52:02.476Z,1.00
2023-08-07T02:54:29.562Z,1.13
2023-08-07T02:56:58.477Z,1.25
2023-08-07T02:59:25.612Z,1.23
2023-08-07T03:01:52.866Z,1.30
2023-08-07T03:04:20.049Z,1.05
2023-08-07T03:06:47.203Z,1.58
2023-08-07T03:09:14.504Z,1.20
2023-08-07T03:11:41.734Z,1.20
2023-08-07T03:14:08.846Z,1.07
2023-08-07T03:16:35.971Z,1.15
2023-08-07T03:19:03.127Z,0.88
2023-08-07T03:21:30.286Z,1.17
2023-08-07T03:23:57.496Z,1.00
2023-08-07T03:26:24.960Z,1.10
2023-08-07T03:28:52.179Z,1.17
2023-08-07T03:31:19.404Z,0.95
2023-08-07T03:33:47.767Z,1.30
2023-08-07T03:36:16.591Z,1.30
2023-08-07T03:38:43.945Z,1.37
2023-08-07T03:41:11.418Z,1.38
2023-08-07T03:43:41.307Z,1.27
2023-08-07T03:46:08.648Z,1.05
2023-08-07T03:48:35.800Z,0.95
2023-08-07T03:51:11.775Z,1.20
2023-08-07T03:53:44.180Z,1.00
2023-08-07T03:56:11.589Z,1.40
2023-08-07T03:58:38.825Z,1.20
2023-08-07T04:01:06.667Z,0.95
2023-08-07T04:03:33.983Z,1.40
2023-08-07T04:06:02.991Z,1.23
2023-08-07T04:08:30.310Z,1.10
2023-08-07T04:11:02.365Z,1.25
2023-08-07T04:13:30.690Z,1.20
2023-08-07T04:15:58.810Z,0.93
2023-08-07T04:18:26.215Z,0.82
2023-08-07T04:20:55.122Z,1.13
2023-08-07T04:23:23.546Z,1.30
2023-08-07T04:25:51.850Z,1.35
2023-08-07T04:28:19.224Z,1.17
2023-08-07T04:30:48.725Z,1.40
2023-08-07T04:33:15.905Z,1.58
2023-08-07T04:35:43.047Z,1.25
2023-08-07T04:38:10.223Z,1.30
2023-08-07T04:40:37.306Z,1.30
2023-08-07T04:43:04.583Z,1.35
2023-08-07T04:45:31.685Z,1.20
2023-08-07T04:47:58.914Z,1.17
2023-08-07T04:50:26.134Z,1.02
2023-08-07T04:52:53.403Z,1.50
2023-08-07T04:55:20.506Z,1.10
2023-08-07T04:57:48.196Z,1.20
2023-08-07T05:00:16.389Z,1.00
2023-08-07T05:02:43.785Z,1.40
2023-08-07T05:05:10.967Z,1.60
2023-08-07T05:07:38.143Z,1.30
2023-08-07T05:10:05.849Z,1.38
2023-08-07T05:12:32.978Z,1.30
2023-08-07T05:15:00.145Z,1.30
2023-08-07T05:17:27.370Z,1.53
2023-08-07T05:19:54.795Z,1.65
2023-08-07T05:22:21.909Z,1.00
2023-08-07T05:24:49.972Z,1.40
2023-08-07T05:27:17.284Z,1.50
2023-08-07T05:29:45.065Z,1.50
2023-08-07T05:32:14.198Z,1.42
2023-08-07T05:34:42.089Z,1.35
2023-08-07T05:37:09.436Z,1.98
2023-08-07T05:39:37.071Z,1.13
2023-08-07T05:42:04.942Z,1.50
2023-08-07T05:44:32.084Z,0.98
2023-08-07T05:46:59.292Z,1.42
2023-08-07T05:49:26.837Z,1.20
2023-08-07T05:51:55.130Z,1.15
2023-08-07T05:54:22.944Z,1.20
2023-08-07T05:56:50.159Z,1.48
2023-08-07T05:59:17.469Z,1.17
2023-08-07T06:01:44.723Z,1.55
2023-08-07T06:04:11.866Z,1.67
2023-08-07T06:06:40.747Z,1.77
2023-08-07T06:09:08.694Z,1.55
2023-08-07T06:11:36.142Z,1.20
2023-08-07T06:14:03.484Z,1.45
2023-08-07T06:16:30.843Z,1.38
2023-08-07T06:18:58.213Z,1.43
2023-08-07T06:21:25.565Z,1.33
2023-08-07T06:23:53.230Z,1.27
2023-08-07T06:26:20.344Z,1.88
2023-08-07T06:28:47.423Z,1.10
2023-08-07T06:31:14.800Z,1.20
2023-08-07T06:33:41.889Z,1.50
2023-08-07T06:36:12.174Z,1.33
2023-08-07T06:38:39.942Z,1.60
2023-08-07T06:41:07.150Z,1.60
2023-08-07T06:43:34.439Z,1.40
2023-08-07T06:46:01.786Z,1.70
2023-08-07T06:48:29.030Z,1.40
2023-08-07T06:50:56.174Z,1.77
2023-08-07T06:53:23.373Z,1.60
2023-08-07T06:55:50.593Z,3.00
2023-08-07T06:58:17.785Z,1.85
2023-08-07T07:00:44.879Z,1.30
2023-08-07T07:03:12.055Z,1.50
2023-08-07T07:05:39.521Z,1.67
2023-08-07T07:08:06.777Z,1.87
2023-08-07T07:10:33.968Z,1.50
2023-08-07T07:13:01.393Z,1.75
2023-08-07T07:15:28.536Z,1.60
2023-08-07T07:17:55.765Z,1.73
2023-08-07T07:20:23.049Z,1.40
2023-08-07T07:22:50.346Z,1.92
2023-08-07T07:25:17.525Z,1.42
2023-08-07T07:27:44.745Z,1.60
2023-08-07T07:30:12.333Z,1.30
2023-08-07T07:32:39.579Z,1.30
2023-08-07T07:35:07.203Z,1.70
2023-08-07T07:37:34.832Z,1.33
2023-08-07T07:40:01.994Z,1.52
2023-08-07T07:42:29.211Z,1.60
2023-08-07T07:44:56.481Z,1.30
2023-08-07T07:47:23.702Z,1.65
2023-08-07T07:50:09.729Z,1.33
2023-08-07T07:52:36.995Z,1.60
2023-08-07T07:55:04.485Z,1.55
2023-08-07T07:57:31.931Z,1.77
2023-08-07T07:59:59.782Z,1.35
2023-08-07T08:02:27.168Z,1.55
2023-08-07T08:04:54.574Z,1.10
2023-08-07T08:07:21.819Z,1.13
2023-08-07T08:09:49.074Z,1.20
2023-08-07T08:12:16.211Z,0.90
2023-08-07T08:14:54.736Z,0.77
2023-08-07T08:17:25.010Z,0.98
2023-08-07T08:19:52.218Z,0.73
2023-08-07T08:22:20.218Z,0.80
2023-08-07T08:24:49.090Z,0.98
2023-08-07T08:27:16.405Z,1.00
2023-08-07T08:29:43.522Z,1.05
2023-08-07T08:32:10.687Z,1.42
2023-08-07T08:34:37.846Z,1.17
2023-08-07T08:37:09.051Z,1.08
2023-08-07T08:39:36.271Z,1.35
2023-08-07T08:42:03.966Z,0.95
2023-08-07T08:44:32.567Z,0.90
2023-08-07T08:47:01.689Z,1.33
2023-08-07T08:49:45.097Z,1.00
2023-08-07T08:52:14.467Z,0.80
2023-08-07T08:54:41.950Z,1.25
2023-08-07T08:57:09.471Z,0.90
2023-08-07T08:59:38.354Z,0.90
2023-08-07T09:02:06.301Z,1.17
2023-08-07T09:04:33.532Z,1.60
2023-08-07T09:07:02.341Z,0.90
2023-08-07T09:09:30.905Z,0.95
2023-08-07T09:11:59.987Z,0.60
2023-08-07T09:14:32.854Z,1.10
2023-08-07T09:17:02.342Z,0.90
2023-08-07T09:19:29.770Z,1.10
2023-08-07T09:21:57.325Z,1.17
2023-08-07T09:24:24.466Z,1.03
2023-08-07T09:26:54.724Z,0.90
2023-08-07T09:29:23.860Z,0.70
2023-08-07T09:31:51.075Z,1.05
2023-08-07T09:34:22.134Z,1.00
2023-08-07T09:36:49.372Z,0.80
2023-08-07T09:39:16.484Z,1.00
2023-08-07T09:41:43.744Z,0.65
2023-08-07T09:44:14.830Z,1.25
2023-08-07T09:46:46.388Z,1.20
2023-08-07T09:49:13.938Z,0.97
2023-08-07T09:51:51.362Z,0.90
2023-08-07T09:54:18.535Z,0.70
2023-08-07T09:56:48.796Z,1.00
2023-08-07T09:59:15.982Z,0.98
2023-08-07T10:01:45.394Z,0.90
2023-08-07T10:04:16.723Z,0.93
2023-08-07T10:06:46.087Z,0.93
2023-08-07T10:09:13.320Z,1.23
2023-08-07T10:11:41.390Z,1.50
2023-08-07T10:14:09.843Z,1.10
2023-08-07T10:16:41.346Z,1.58
2023-08-07T10:19:12.341Z,1.10
2023-08-07T10:21:44.208Z,1.10
2023-08-07T10:24:13.020Z,1.15
2023-08-07T10:26:45.755Z,0.90
2023-08-07T10:29:18.995Z,1.27
2023-08-07T10:31:47.946Z,1.38
2023-08-07T10:34:16.702Z,1.25
2023-08-07T10:36:43.905Z,0.93
2023-08-07T10:39:13.842Z,1.13
2023-08-07T10:41:48.489Z,1.05
2023-08-07T10:44:35.038Z,0.77
2023-08-07T10:47:04.049Z,0.80
2023-08-07T10:49:39.667Z,0.90
2023-08-07T10:52:13.742Z,1.10
2023-08-07T10:54:51.255Z,1.02
2023-08-07T10:57:20.322Z,1.10
2023-08-07T10:59:53.280Z,0.90
2023-08-07T11:02:29.576Z,0.88
2023-08-07T11:04:57.225Z,1.00
2023-08-07T11:07:29.693Z,0.82
2023-08-07T11:09:58.376Z,1.23
2023-08-07T11:12:29.862Z,0.98
2023-08-07T11:14:58.168Z,1.02
2023-08-07T11:17:30.163Z,1.10
2023-08-07T11:19:58.035Z,1.27
2023-08-07T11:22:25.222Z,1.00
2023-08-07T11:24:52.977Z,0.90
2023-08-07T11:27:23.807Z,1.05
2023-08-07T11:29:51.093Z,1.10
2023-08-07T11:32:19.766Z,0.98
2023-08-07T11:34:52.091Z,0.98
2023-08-07T11:37:20.080Z,0.80
2023-08-07T11:39:47.230Z,0.98
2023-08-07T11:42:15.151Z,1.00
2023-08-07T11:44:42.904Z,0.90
2023-08-07T11:47:11.620Z,0.80
2023-08-07T11:49:39.239Z,1.00
2023-08-07T11:52:07.079Z,0.93
2023-08-07T11:54:34.461Z,0.90
2023-08-07T11:57:01.609Z,1.00
2023-08-07T11:59:28.770Z,1.15
2023-08-07T12:01:56.136Z,0.90
2023-08-07T12:04:23.638Z,0.90
2023-08-07T12:06:56.429Z,0.90
2023-08-07T12:09:24.142Z,1.10
2023-08-07T12:11:51.241Z,0.70
2023-08-07T12:14:18.933Z,0.90
2023-08-07T12:16:49.571Z,1.13
2023-08-07T12:19:17.611Z,1.00
2023-08-07T12:21:44.883Z,0.80
2023-08-07T12:24:14.214Z,0.80
2023-08-07T12:26:41.450Z,0.85
2023-08-07T12:29:08.648Z,1.08
2023-08-07T12:31:38.721Z,0.80
2023-08-07T12:36:37.102Z,1.15
2023-08-07T12:39:05.195Z,0.90
2023-08-07T12:44:02.543Z,0.97
2023-08-07T12:46:32.708Z,0.90
2023-08-07T12:49:00.190Z,0.80
2023-08-07T12:51:27.370Z,0.90
2023-08-07T12:53:54.553Z,0.70
2023-08-07T12:56:21.858Z,0.70
2023-08-07T12:58:48.939Z,0.70
2023-08-07T13:01:16.132Z,0.70
2023-08-07T13:03:45.001Z,0.80
2023-08-07T13:06:13.095Z,0.77
2023-08-07T13:08:40.604Z,0.90
2023-08-07T13:11:07.834Z,0.60
2023-08-07T13:13:34.973Z,0.98
2023-08-07T13:16:02.258Z,0.88
2023-08-07T13:18:29.473Z,0.70
2023-08-07T13:20:57.805Z,0.93
2023-08-07T13:23:25.000Z,0.70
2023-08-07T13:25:52.158Z,0.70
2023-08-07T13:28:19.485Z,0.60
2023-08-07T13:30:46.687Z,0.75
2023-08-07T13:33:13.926Z,0.80
2023-08-07T13:35:41.109Z,0.73
2023-08-07T13:38:09.229Z,0.68
2023-08-07T13:40:36.606Z,0.80
2023-08-07T13:43:09.082Z,0.80
2023-08-07T13:45:37.417Z,0.70
2023-08-07T13:48:06.099Z,0.63
2023-08-07T13:50:33.442Z,0.63
2023-08-07T13:53:13.399Z,0.50
2023-08-07T13:55:42.093Z,0.63
2023-08-07T13:58:10.638Z,0.40
2023-08-07T14:00:38.248Z,0.77
2023-08-07T14:03:05.575Z,1.00
2023-08-07T14:05:32.809Z,0.63
2023-08-07T14:08:00.141Z,0.70
2023-08-07T14:10:27.603Z,0.70
2023-08-07T14:12:54.723Z,0.50
2023-08-07T14:15:22.101Z,0.60
2023-08-07T14:17:49.294Z,0.60
2023-08-07T14:20:16.586Z,0.60
2023-08-07T14:22:43.726Z,0.50
2023-08-07T14:25:10.897Z,0.63
2023-08-07T14:27:38.045Z,0.80
2023-08-07T14:30:06.021Z,0.80
2023-08-07T14:32:33.231Z,0.57
2023-08-07T14:35:00.500Z,0.80
2023-08-07T14:37:27.671Z,0.50
2023-08-07T14:39:54.805Z,0.70
2023-08-07T14:42:21.922Z,0.80
2023-08-07T14:44:49.064Z,0.80
2023-08-07T14:47:16.221Z,0.60
2023-08-07T14:49:44.014Z,0.55
2023-08-07T14:52:11.188Z,0.50
2023-08-07T14:54:38.335Z,0.60
2023-08-07T14:57:05.726Z,0.60
2023-08-07T14:59:32.937Z,0.60
2023-08-07T15:02:00.586Z,0.80
2023-08-07T15:04:28.549Z,0.60
2023-08-07T15:06:55.711Z,0.75
2023-08-07T15:09:22.852Z,0.70
2023-08-07T15:11:50.493Z,0.90
2023-08-07T15:14:18.843Z,0.80
2023-08-07T15:16:45.987Z,0.70
2023-08-07T15:19:13.273Z,0.82
2023-08-07T15:21:40.465Z,0.80
2023-08-07T15:24:07.863Z,0.80
2023-08-07T15:26:35.137Z,0.70
2023-08-07T15:29:02.310Z,0.80
2023-08-07T15:31:29.410Z,1.05
2023-08-07T15:33:58.503Z,0.90
2023-08-07T15:36:25.626Z,0.80
2023-08-07T15:38:52.868Z,0.93
2023-08-07T15:41:20.226Z,1.10
2023-08-07T15:43:50.475Z,0.90
2023-08-07T15:46:20.717Z,0.75
2023-08-07T15:48:47.902Z,0.60
2023-08-07T15:51:15.058Z,0.90
2023-08-07T15:53:42.265Z,0.70
2023-08-07T15:56:09.416Z,0.50
2023-08-07T15:58:36.953Z,1.02
2023-08-07T16:01:04.192Z,0.90
2023-08-07T16:03:31.360Z,0.77
2023-08-07T16:05:58.536Z,0.90
2023-08-07T16:08:25.755Z,0.70
2023-08-07T16:10:53.891Z,0.80
2023-08-07T16:13:21.357Z,0.70
2023-08-07T16:15:48.608Z,0.90
2023-08-07T16:18:15.960Z,1.10
2023-08-07T16:20:43.116Z,0.90
2023-08-07T16:23:10.268Z,0.93
2023-08-07T16:25:37.484Z,0.87
2023-08-07T16:28:06.495Z,1.00
2023-08-07T16:30:33.659Z,0.98
2023-08-07T16:33:00.945Z,1.00
2023-08-07T16:35:28.452Z,1.00
2023-08-07T16:37:55.921Z,1.10
2023-08-07T16:40:23.000Z,0.90
2023-08-07T16:42:50.337Z,0.82
2023-08-07T16:45:17.696Z,0.82
2023-08-07T16:47:44.904Z,1.17
2023-08-07T16:50:12.146Z,0.70
2023-08-07T16:52:39.287Z,0.80
2023-08-07T16:55:07.355Z,1.00
2023-08-07T16:57:34.507Z,0.90
2023-08-07T17:00:02.083Z,0.90
2023-08-07T17:02:29.284Z,0.93
2023-08-07T17:04:56.426Z,1.02
2023-08-07T17:07:23.646Z,0.82
2023-08-07T17:09:50.997Z,1.00
2023-08-07T17:12:18.156Z,1.13
2023-08-07T17:14:45.649Z,1.53
2023-08-07T17:17:12.913Z,1.50
2023-08-07T17:19:40.030Z,1.20
2023-08-07T17:22:07.673Z,1.13
2023-08-07T17:24:34.953Z,1.05
2023-08-07T17:27:02.236Z,1.17
2023-08-07T17:29:29.427Z,1.23
2023-08-07T17:31:59.083Z,0.93
2023-08-07T17:34:26.699Z,1.10
2023-08-07T17:36:53.910Z,1.05
2023-08-07T17:39:21.151Z,1.17
2023-08-07T17:41:48.922Z,1.40
2023-08-07T17:44:17.342Z,1.00
2023-08-07T17:46:44.868Z,0.90
2023-08-07T17:49:11.953Z,1.10
2023-08-07T17:51:39.117Z,1.33
2023-08-07T17:54:06.353Z,1.40
2023-08-07T17:56:34.563Z,1.10
2023-08-07T17:59:01.680Z,1.38
2023-08-07T18:01:30.970Z,1.30
2023-08-07T18:04:01.427Z,1.23
2023-08-07T18:06:29.752Z,1.45
2023-08-07T18:08:58.695Z,1.25
2023-08-07T18:11:25.921Z,1.30
2023-08-07T18:13:53.246Z,1.45
2023-08-07T18:16:20.466Z,1.00
2023-08-07T18:18:47.939Z,1.30
2023-08-07T18:21:15.152Z,1.17
2023-08-07T18:23:42.246Z,1.27
2023-08-07T18:26:09.477Z,1.15
2023-08-07T18:28:37.925Z,1.90
2023-08-07T18:31:05.317Z,1.58
2023-08-07T18:33:33.441Z,1.05
2023-08-07T18:36:01.492Z,1.48
2023-08-07T18:38:29.027Z,1.55
2023-08-07T18:40:56.263Z,1.33
2023-08-07T18:43:23.445Z,2.10
2023-08-07T18:45:50.734Z,1.88
2023-08-07T18:48:18.035Z,1.80
2023-08-07T18:50:45.348Z,1.45
2023-08-07T18:53:12.449Z,1.50
2023-08-07T18:55:39.615Z,2.00
2023-08-07T18:58:06.725Z,1.55
2023-08-07T19:00:33.919Z,1.50
2023-08-07T19:03:01.276Z,1.58
2023-08-07T19:05:28.576Z,1.37
2023-08-07T19:07:55.679Z,1.80
2023-08-07T19:10:22.964Z,1.50
2023-08-07T19:12:51.024Z,1.90
2023-08-07T19:15:18.250Z,1.95
2023-08-07T19:17:45.616Z,2.00
2023-08-07T19:20:13.190Z,2.67
2023-08-07T19:22:41.344Z,3.38
2023-08-07T19:25:09.070Z,3.58
2023-08-07T19:27:36.261Z,3.13
2023-08-07T19:30:04.050Z,2.90
2023-08-07T19:32:31.388Z,2.40
2023-08-07T19:34:59.644Z,2.47
2023-08-07T19:37:27.087Z,1.95
2023-08-07T19:39:55.792Z,2.05
2023-08-07T19:42:22.989Z,1.80
2023-08-07T19:44:50.081Z,2.35
2023-08-07T19:47:35.424Z,1.95
2023-08-07T19:50:04.473Z,1.90
2023-08-07T19:52:31.742Z,1.83
2023-08-07T19:54:58.994Z,1.77
2023-08-07T19:57:26.117Z,1.67
2023-08-07T19:59:53.362Z,2.03
2023-08-07T20:02:20.881Z,2.10
2023-08-07T20:04:48.831Z,1.80
2023-08-07T20:07:16.007Z,2.20
2023-08-07T20:09:43.849Z,2.00
2023-08-07T20:12:11.625Z,1.60
2023-08-07T20:14:39.080Z,2.05
2023-08-07T20:17:07.581Z,2.17
2023-08-07T20:19:35.243Z,2.07
2023-08-07T20:22:02.763Z,2.40
2023-08-07T20:24:30.333Z,2.03
2023-08-07T20:26:59.278Z,2.42
2023-08-07T20:29:27.557Z,2.10
2023-08-07T20:31:54.952Z,1.80
2023-08-07T20:34:22.292Z,2.10
2023-08-07T20:36:49.553Z,2.30
2023-08-07T20:39:16.998Z,1.90
2023-08-07T20:41:45.391Z,2.05
2023-08-07T20:44:12.715Z,2.13
2023-08-07T20:46:40.017Z,2.50
2023-08-07T20:49:07.231Z,2.60
2023-08-07T20:51:35.707Z,2.08
2023-08-07T20:54:03.001Z,2.50
2023-08-07T20:56:30.095Z,2.10
2023-08-07T20:58:57.788Z,1.70
2023-08-07T21:01:25.568Z,1.98
2023-08-07T21:03:52.728Z,2.53
2023-08-07T21:06:20.272Z,2.30
2023-08-07T21:08:48.611Z,2.20
2023-08-07T21:11:15.878Z,2.13
2023-08-07T21:13:43.029Z,2.00
2023-08-07T21:16:10.268Z,2.15
2023-08-07T21:18:37.535Z,1.63
2023-08-07T21:21:04.859Z,1.90
2023-08-07T21:23:33.543Z,2.08
2023-08-07T21:26:03.003Z,1.75
2023-08-07T21:28:30.201Z,2.15
2023-08-07T21:30:57.403Z,2.28
2023-08-07T21:33:24.781Z,1.83
2023-08-07T21:35:52.274Z,1.83
2023-08-07T21:38:19.717Z,1.80
2023-08-07T21:40:46.992Z,1.58
2023-08-07T21:43:15.709Z,1.60
2023-08-07T21:45:45.017Z,2.10
2023-08-07T21:48:12.990Z,1.58
2023-08-07T21:50:40.543Z,2.10
2023-08-07T21:53:07.871Z,1.80
2023-08-07T21:55:35.166Z,1.90
2023-08-07T21:58:02.503Z,1.53
2023-08-07T22:00:29.939Z,1.50
2023-08-07T22:02:57.189Z,1.58
2023-08-07T22:05:24.496Z,1.50
2023-08-07T22:07:51.668Z,1.60
2023-08-07T22:10:18.860Z,2.10
2023-08-07T22:12:47.020Z,1.65
2023-08-07T22:15:15.372Z,1.60
2023-08-07T22:17:42.803Z,1.70
2023-08-07T22:20:13.615Z,1.35
2023-08-07T22:22:42.349Z,1.43
2023-08-07T22:25:10.137Z,1.75
2023-08-07T22:27:37.302Z,1.48
2023-08-07T22:30:08.648Z,1.58
2023-08-07T22:32:36.777Z,2.20
2023-08-07T22:35:04.433Z,1.70
2023-08-07T22:37:31.594Z,1.73
2023-08-07T22:39:59.118Z,1.85
2023-08-07T22:42:26.413Z,1.65
2023-08-07T22:44:53.594Z,1.52
2023-08-07T22:47:20.831Z,1.73
2023-08-07T22:49:47.985Z,1.70
2023-08-07T22:52:15.180Z,1.92
2023-08-07T22:54:42.335Z,1.63
2023-08-07T22:57:09.449Z,1.63
2023-08-07T22:59:37.810Z,1.53
2023-08-07T23:02:05.522Z,1.75
2023-08-07T23:04:32.688Z,1.58
2023-08-07T23:06:59.843Z,1.30
2023-08-07T23:09:27.642Z,1.80
2023-08-07T23:11:54.862Z,1.57
2023-08-07T23:14:22.024Z,1.55
2023-08-07T23:16:49.090Z,1.20
2023-08-07T23:19:16.525Z,1.60
2023-08-07T23:21:43.641Z,1.48
2023-08-07T23:24:10.796Z,1.40
2023-08-07T23:26:37.891Z,1.35
2023-08-07T23:29:04.988Z,1.50
2023-08-07T23:31:32.182Z,1.70
2023-08-07T23:33:59.301Z,1.42
2023-08-07T23:36:26.501Z,1.33
2023-08-07T23:38:53.624Z,1.58
2023-08-07T23:41:20.882Z,1.23
2023-08-07T23:43:48.194Z,1.60
2023-08-07T23:46:15.427Z,1.75
2023-08-07T23:48:42.608Z,1.53
2023-08-07T23:51:09.731Z,1.92
2023-08-07T23:53:36.948Z,1.60
2023-08-07T23:56:04.549Z,1.25
2023-08-07T23:58:31.687Z,1.92
